sensor_id;sensor_type;location;lat;lon;timestamp;P1;durP1;ratioP1;P2;durP2;ratioP2
25982;SDS011;13773;48.868;10.730;2023-05-20T00:00:24;4.40;;;3.87;;
25982;SDS011;13773;48.868;10.730;2023-05-20T00:02:50;4.30;;;3.83;;
25982;SDS011;13773;48.868;10.730;2023-05-20T00:05:16;4.10;;;3.57;;
25982;SDS011;13773;48.868;10.730;2023-05-20T00:07:41;4.20;;;3.90;;
25982;SDS011;13773;48.868;10.730;2023-05-20T00:10:07;3.80;;;3.40;;
25982;SDS011;13773;48.868;10.730;2023-05-20T00:12:33;4.17;;;3.77;;
25982;SDS011;13773;48.868;10.730;2023-05-20T00:15:01;4.03;;;3.70;;
25982;SDS011;13773;48.868;10.730;2023-05-20T00:17:27;4.53;;;4.13;;
25982;SDS011;13773;48.868;10.730;2023-05-20T00:19:53;5.00;;;4.50;;
25982;SDS011;13773;48.868;10.730;2023-05-20T00:22:19;4.13;;;3.80;;
25982;SDS011;13773;48.868;10.730;2023-05-20T00:24:45;4.70;;;4.30;;
25982;SDS011;13773;48.868;10.730;2023-05-20T00:27:10;5.07;;;4.20;;
25982;SDS011;13773;48.868;10.730;2023-05-20T00:29:36;5.57;;;4.40;;
25982;SDS011;13773;48.868;10.730;2023-05-20T00:32:02;4.70;;;4.20;;
25982;SDS011;13773;48.868;10.730;2023-05-20T00:34:27;5.40;;;4.03;;
25982;SDS011;13773;48.868;10.730;2023-05-20T00:36:53;5.43;;;4.77;;
25982;SDS011;13773;48.868;10.730;2023-05-20T00:39:19;5.23;;;4.70;;
25982;SDS011;13773;48.868;10.730;2023-05-20T00:41:45;4.60;;;4.20;;
25982;SDS011;13773;48.868;10.730;2023-05-20T00:44:10;4.67;;;4.17;;
25982;SDS011;13773;48.868;10.730;2023-05-20T00:46:36;4.87;;;4.33;;
25982;SDS011;13773;48.868;10.730;2023-05-20T00:49:02;5.03;;;4.10;;
25982;SDS011;13773;48.868;10.730;2023-05-20T00:51:28;4.80;;;4.30;;
25982;SDS011;13773;48.868;10.730;2023-05-20T00:53:54;5.17;;;4.67;;
25982;SDS011;13773;48.868;10.730;2023-05-20T00:56:20;5.27;;;4.47;;
25982;SDS011;13773;48.868;10.730;2023-05-20T00:58:47;4.73;;;3.97;;
25982;SDS011;13773;48.868;10.730;2023-05-20T01:01:13;4.60;;;4.20;;
25982;SDS011;13773;48.868;10.730;2023-05-20T01:03:39;5.83;;;4.40;;
25982;SDS011;13773;48.868;10.730;2023-05-20T01:06:08;6.13;;;4.57;;
25982;SDS011;13773;48.868;10.730;2023-05-20T01:08:34;4.90;;;4.50;;
25982;SDS011;13773;48.868;10.730;2023-05-20T01:11:43;5.37;;;4.63;;
25982;SDS011;13773;48.868;10.730;2023-05-20T01:14:07;6.37;;;4.47;;
25982;SDS011;13773;48.868;10.730;2023-05-20T01:16:36;5.00;;;4.50;;
25982;SDS011;13773;48.868;10.730;2023-05-20T01:19:03;5.20;;;4.80;;
25982;SDS011;13773;48.868;10.730;2023-05-20T01:21:42;5.70;;;4.80;;
25982;SDS011;13773;48.868;10.730;2023-05-20T01:24:10;5.03;;;4.63;;
25982;SDS011;13773;48.868;10.730;2023-05-20T01:26:36;4.60;;;4.10;;
25982;SDS011;13773;48.868;10.730;2023-05-20T01:29:02;6.37;;;4.37;;
25982;SDS011;13773;48.868;10.730;2023-05-20T01:31:29;4.70;;;4.30;;
25982;SDS011;13773;48.868;10.730;2023-05-20T01:34:00;5.90;;;4.70;;
25982;SDS011;13773;48.868;10.730;2023-05-20T01:36:26;5.27;;;4.63;;
25982;SDS011;13773;48.868;10.730;2023-05-20T01:38:53;5.93;;;4.97;;
25982;SDS011;13773;48.868;10.730;2023-05-20T01:41:20;5.97;;;5.43;;
25982;SDS011;13773;48.868;10.730;2023-05-20T01:43:49;5.23;;;4.70;;
25982;SDS011;13773;48.868;10.730;2023-05-20T01:46:14;4.93;;;4.53;;
25982;SDS011;13773;48.868;10.730;2023-05-20T01:48:40;5.73;;;5.00;;
25982;SDS011;13773;48.868;10.730;2023-05-20T01:51:07;5.57;;;4.77;;
25982;SDS011;13773;48.868;10.730;2023-05-20T01:53:32;6.40;;;5.20;;
25982;SDS011;13773;48.868;10.730;2023-05-20T01:55:58;5.17;;;4.53;;
25982;SDS011;13773;48.868;10.730;2023-05-20T01:58:24;6.93;;;5.27;;
25982;SDS011;13773;48.868;10.730;2023-05-20T02:00:50;5.60;;;4.90;;
25982;SDS011;13773;48.868;10.730;2023-05-20T02:03:15;5.47;;;4.70;;
25982;SDS011;13773;48.868;10.730;2023-05-20T02:05:41;8.17;;;5.57;;
25982;SDS011;13773;48.868;10.730;2023-05-20T02:08:07;6.23;;;5.50;;
25982;SDS011;13773;48.868;10.730;2023-05-20T02:10:33;5.93;;;5.37;;
25982;SDS011;13773;48.868;10.730;2023-05-20T02:12:59;7.00;;;5.67;;
25982;SDS011;13773;48.868;10.730;2023-05-20T02:15:24;6.93;;;5.10;;
25982;SDS011;13773;48.868;10.730;2023-05-20T02:17:50;5.60;;;5.10;;
25982;SDS011;13773;48.868;10.730;2023-05-20T02:20:16;6.30;;;5.70;;
25982;SDS011;13773;48.868;10.730;2023-05-20T02:22:42;7.67;;;5.60;;
25982;SDS011;13773;48.868;10.730;2023-05-20T02:25:07;5.37;;;4.87;;
25982;SDS011;13773;48.868;10.730;2023-05-20T02:27:34;6.83;;;6.20;;
25982;SDS011;13773;48.868;10.730;2023-05-20T02:30:00;5.50;;;4.93;;
25982;SDS011;13773;48.868;10.730;2023-05-20T02:32:26;8.53;;;6.37;;
25982;SDS011;13773;48.868;10.730;2023-05-20T02:34:55;6.40;;;5.50;;
25982;SDS011;13773;48.868;10.730;2023-05-20T02:37:21;6.53;;;5.90;;
25982;SDS011;13773;48.868;10.730;2023-05-20T02:39:47;5.83;;;5.27;;
25982;SDS011;13773;48.868;10.730;2023-05-20T02:42:12;5.47;;;4.97;;
25982;SDS011;13773;48.868;10.730;2023-05-20T02:44:38;5.90;;;5.40;;
25982;SDS011;13773;48.868;10.730;2023-05-20T02:47:04;6.13;;;5.53;;
25982;SDS011;13773;48.868;10.730;2023-05-20T02:49:30;7.63;;;5.67;;
25982;SDS011;13773;48.868;10.730;2023-05-20T02:51:55;6.10;;;5.50;;
25982;SDS011;13773;48.868;10.730;2023-05-20T02:54:21;7.17;;;5.90;;
25982;SDS011;13773;48.868;10.730;2023-05-20T02:56:47;7.07;;;5.87;;
25982;SDS011;13773;48.868;10.730;2023-05-20T02:59:26;6.67;;;5.97;;
25982;SDS011;13773;48.868;10.730;2023-05-20T03:01:51;7.17;;;6.03;;
25982;SDS011;13773;48.868;10.730;2023-05-20T03:04:17;6.60;;;5.80;;
25982;SDS011;13773;48.868;10.730;2023-05-20T03:06:43;6.27;;;5.63;;
25982;SDS011;13773;48.868;10.730;2023-05-20T03:09:10;6.93;;;6.23;;
25982;SDS011;13773;48.868;10.730;2023-05-20T03:11:36;6.97;;;6.37;;
25982;SDS011;13773;48.868;10.730;2023-05-20T03:14:02;7.10;;;5.70;;
25982;SDS011;13773;48.868;10.730;2023-05-20T03:16:28;6.37;;;5.77;;
25982;SDS011;13773;48.868;10.730;2023-05-20T03:18:53;6.90;;;6.00;;
25982;SDS011;13773;48.868;10.730;2023-05-20T03:21:19;8.70;;;6.27;;
25982;SDS011;13773;48.868;10.730;2023-05-20T03:23:47;7.77;;;5.63;;
25982;SDS011;13773;48.868;10.730;2023-05-20T03:26:13;6.90;;;6.20;;
25982;SDS011;13773;48.868;10.730;2023-05-20T03:28:39;6.90;;;6.30;;
25982;SDS011;13773;48.868;10.730;2023-05-20T03:31:04;8.60;;;6.87;;
25982;SDS011;13773;48.868;10.730;2023-05-20T03:33:32;6.50;;;5.90;;
25982;SDS011;13773;48.868;10.730;2023-05-20T03:35:59;7.77;;;6.50;;
25982;SDS011;13773;48.868;10.730;2023-05-20T03:38:25;8.50;;;6.70;;
25982;SDS011;13773;48.868;10.730;2023-05-20T03:40:51;6.77;;;6.13;;
25982;SDS011;13773;48.868;10.730;2023-05-20T03:43:17;8.60;;;6.83;;
25982;SDS011;13773;48.868;10.730;2023-05-20T03:45:42;7.37;;;6.67;;
25982;SDS011;13773;48.868;10.730;2023-05-20T03:48:08;9.73;;;7.17;;
25982;SDS011;13773;48.868;10.730;2023-05-20T03:50:34;7.73;;;7.03;;
25982;SDS011;13773;48.868;10.730;2023-05-20T03:52:59;7.93;;;7.13;;
25982;SDS011;13773;48.868;10.730;2023-05-20T03:55:25;8.20;;;7.10;;
25982;SDS011;13773;48.868;10.730;2023-05-20T03:57:52;8.13;;;6.90;;
25982;SDS011;13773;48.868;10.730;2023-05-20T04:00:18;7.70;;;6.90;;
25982;SDS011;13773;48.868;10.730;2023-05-20T04:02:44;7.73;;;6.93;;
25982;SDS011;13773;48.868;10.730;2023-05-20T04:05:09;8.50;;;6.93;;
25982;SDS011;13773;48.868;10.730;2023-05-20T04:07:35;8.00;;;7.20;;
25982;SDS011;13773;48.868;10.730;2023-05-20T04:10:01;7.73;;;7.03;;
25982;SDS011;13773;48.868;10.730;2023-05-20T04:12:28;7.97;;;7.03;;
25982;SDS011;13773;48.868;10.730;2023-05-20T04:14:56;7.50;;;6.80;;
25982;SDS011;13773;48.868;10.730;2023-05-20T04:17:25;7.50;;;6.80;;
25982;SDS011;13773;48.868;10.730;2023-05-20T04:19:53;9.97;;;7.20;;
25982;SDS011;13773;48.868;10.730;2023-05-20T04:22:20;8.90;;;7.40;;
25982;SDS011;13773;48.868;10.730;2023-05-20T04:24:45;8.37;;;7.20;;
25982;SDS011;13773;48.868;10.730;2023-05-20T04:27:11;8.17;;;7.03;;
25982;SDS011;13773;48.868;10.730;2023-05-20T04:29:38;7.13;;;6.53;;
25982;SDS011;13773;48.868;10.730;2023-05-20T04:32:06;6.77;;;6.17;;
25982;SDS011;13773;48.868;10.730;2023-05-20T04:34:34;7.27;;;6.23;;
25982;SDS011;13773;48.868;10.730;2023-05-20T04:37:01;7.20;;;6.50;;
25982;SDS011;13773;48.868;10.730;2023-05-20T04:39:27;9.87;;;6.70;;
25982;SDS011;13773;48.868;10.730;2023-05-20T04:41:52;7.90;;;7.10;;
25982;SDS011;13773;48.868;10.730;2023-05-20T04:44:19;7.53;;;6.80;;
25982;SDS011;13773;48.868;10.730;2023-05-20T04:46:44;8.57;;;7.67;;
25982;SDS011;13773;48.868;10.730;2023-05-20T04:49:10;8.10;;;7.30;;
25982;SDS011;13773;48.868;10.730;2023-05-20T04:51:36;8.53;;;7.77;;
25982;SDS011;13773;48.868;10.730;2023-05-20T04:54:02;8.13;;;7.33;;
25982;SDS011;13773;48.868;10.730;2023-05-20T04:56:28;7.70;;;6.90;;
25982;SDS011;13773;48.868;10.730;2023-05-20T04:58:53;7.77;;;7.00;;
25982;SDS011;13773;48.868;10.730;2023-05-20T05:01:22;8.73;;;7.93;;
25982;SDS011;13773;48.868;10.730;2023-05-20T05:03:56;8.40;;;7.03;;
25982;SDS011;13773;48.868;10.730;2023-05-20T05:06:22;9.13;;;7.40;;
25982;SDS011;13773;48.868;10.730;2023-05-20T05:09:03;10.47;;;7.07;;
25982;SDS011;13773;48.868;10.730;2023-05-20T05:11:29;7.73;;;6.93;;
25982;SDS011;13773;48.868;10.730;2023-05-20T05:14:09;6.77;;;6.07;;
25982;SDS011;13773;48.868;10.730;2023-05-20T05:16:36;5.57;;;5.10;;
25982;SDS011;13773;48.868;10.730;2023-05-20T05:19:09;5.47;;;4.97;;
25982;SDS011;13773;48.868;10.730;2023-05-20T05:21:44;5.97;;;5.10;;
25982;SDS011;13773;48.868;10.730;2023-05-20T05:24:13;6.03;;;5.53;;
25982;SDS011;13773;48.868;10.730;2023-05-20T05:26:43;5.90;;;5.40;;
25982;SDS011;13773;48.868;10.730;2023-05-20T05:29:15;6.60;;;5.30;;
25982;SDS011;13773;48.868;10.730;2023-05-20T05:31:40;6.60;;;5.73;;
25982;SDS011;13773;48.868;10.730;2023-05-20T05:34:06;5.47;;;4.97;;
25982;SDS011;13773;48.868;10.730;2023-05-20T05:36:32;5.30;;;4.80;;
25982;SDS011;13773;48.868;10.730;2023-05-20T05:38:58;6.37;;;4.90;;
25982;SDS011;13773;48.868;10.730;2023-05-20T05:41:23;6.40;;;5.00;;
25982;SDS011;13773;48.868;10.730;2023-05-20T05:43:51;5.60;;;5.00;;
25982;SDS011;13773;48.868;10.730;2023-05-20T05:46:16;5.93;;;5.33;;
25982;SDS011;13773;48.868;10.730;2023-05-20T05:48:42;5.87;;;5.20;;
25982;SDS011;13773;48.868;10.730;2023-05-20T05:51:13;6.90;;;5.20;;
25982;SDS011;13773;48.868;10.730;2023-05-20T05:53:39;5.97;;;5.40;;
25982;SDS011;13773;48.868;10.730;2023-05-20T05:56:05;6.23;;;5.43;;
25982;SDS011;13773;48.868;10.730;2023-05-20T05:58:31;7.03;;;4.93;;
25982;SDS011;13773;48.868;10.730;2023-05-20T06:00:57;5.73;;;4.83;;
25982;SDS011;13773;48.868;10.730;2023-05-20T06:03:22;5.50;;;5.00;;
25982;SDS011;13773;48.868;10.730;2023-05-20T06:05:49;5.77;;;5.07;;
25982;SDS011;13773;48.868;10.730;2023-05-20T06:08:14;5.87;;;5.37;;
25982;SDS011;13773;48.868;10.730;2023-05-20T06:10:40;5.50;;;5.00;;
25982;SDS011;13773;48.868;10.730;2023-05-20T06:13:10;6.00;;;5.40;;
25982;SDS011;13773;48.868;10.730;2023-05-20T06:15:36;5.27;;;4.80;;
25982;SDS011;13773;48.868;10.730;2023-05-20T06:18:03;5.97;;;5.37;;
25982;SDS011;13773;48.868;10.730;2023-05-20T06:20:29;5.63;;;5.13;;
25982;SDS011;13773;48.868;10.730;2023-05-20T06:22:55;5.77;;;5.13;;
25982;SDS011;13773;48.868;10.730;2023-05-20T06:25:20;5.67;;;5.17;;
25982;SDS011;13773;48.868;10.730;2023-05-20T06:27:47;6.83;;;5.47;;
25982;SDS011;13773;48.868;10.730;2023-05-20T06:30:13;5.90;;;5.40;;
25982;SDS011;13773;48.868;10.730;2023-05-20T06:32:38;5.77;;;5.27;;
25982;SDS011;13773;48.868;10.730;2023-05-20T06:35:04;6.10;;;5.57;;
25982;SDS011;13773;48.868;10.730;2023-05-20T06:37:30;5.23;;;4.80;;
25982;SDS011;13773;48.868;10.730;2023-05-20T06:39:56;5.93;;;5.43;;
25982;SDS011;13773;48.868;10.730;2023-05-20T06:42:22;5.30;;;4.80;;
25982;SDS011;13773;48.868;10.730;2023-05-20T06:44:47;5.60;;;5.10;;
25982;SDS011;13773;48.868;10.730;2023-05-20T06:47:13;4.90;;;4.50;;
25982;SDS011;13773;48.868;10.730;2023-05-20T06:49:41;5.70;;;5.20;;
25982;SDS011;13773;48.868;10.730;2023-05-20T06:52:08;7.47;;;5.03;;
25982;SDS011;13773;48.868;10.730;2023-05-20T06:54:33;5.30;;;4.90;;
25982;SDS011;13773;48.868;10.730;2023-05-20T06:57:04;5.63;;;5.13;;
25982;SDS011;13773;48.868;10.730;2023-05-20T06:59:30;5.87;;;5.27;;
25982;SDS011;13773;48.868;10.730;2023-05-20T07:01:56;5.33;;;4.83;;
25982;SDS011;13773;48.868;10.730;2023-05-20T07:04:22;5.93;;;5.40;;
25982;SDS011;13773;48.868;10.730;2023-05-20T07:06:47;5.87;;;5.33;;
25982;SDS011;13773;48.868;10.730;2023-05-20T07:09:13;5.20;;;4.70;;
25982;SDS011;13773;48.868;10.730;2023-05-20T07:11:39;5.57;;;4.83;;
25982;SDS011;13773;48.868;10.730;2023-05-20T07:14:04;5.53;;;5.03;;
25982;SDS011;13773;48.868;10.730;2023-05-20T07:16:31;5.17;;;4.67;;
25982;SDS011;13773;48.868;10.730;2023-05-20T07:18:58;5.60;;;5.00;;
25982;SDS011;13773;48.868;10.730;2023-05-20T07:21:25;5.27;;;4.80;;
25982;SDS011;13773;48.868;10.730;2023-05-20T07:23:51;7.57;;;5.80;;
25982;SDS011;13773;48.868;10.730;2023-05-20T07:26:17;6.57;;;5.10;;
25982;SDS011;13773;48.868;10.730;2023-05-20T07:28:43;6.10;;;5.50;;
25982;SDS011;13773;48.868;10.730;2023-05-20T07:31:11;6.40;;;5.40;;
25982;SDS011;13773;48.868;10.730;2023-05-20T07:33:51;5.53;;;5.00;;
25982;SDS011;13773;48.868;10.730;2023-05-20T07:36:17;7.63;;;5.47;;
25982;SDS011;13773;48.868;10.730;2023-05-20T07:38:45;6.60;;;4.90;;
25982;SDS011;13773;48.868;10.730;2023-05-20T07:41:29;6.13;;;5.53;;
25982;SDS011;13773;48.868;10.730;2023-05-20T07:44:00;5.63;;;5.07;;
25982;SDS011;13773;48.868;10.730;2023-05-20T07:46:33;6.30;;;5.27;;
25982;SDS011;13773;48.868;10.730;2023-05-20T07:48:59;5.90;;;5.40;;
25982;SDS011;13773;48.868;10.730;2023-05-20T07:51:25;6.00;;;5.40;;
25982;SDS011;13773;48.868;10.730;2023-05-20T07:53:51;6.27;;;5.30;;
25982;SDS011;13773;48.868;10.730;2023-05-20T07:56:18;5.40;;;4.90;;
25982;SDS011;13773;48.868;10.730;2023-05-20T07:58:52;5.27;;;4.80;;
25982;SDS011;13773;48.868;10.730;2023-05-20T08:01:19;5.40;;;4.90;;
25982;SDS011;13773;48.868;10.730;2023-05-20T08:03:46;5.43;;;4.93;;
25982;SDS011;13773;48.868;10.730;2023-05-20T08:06:11;6.10;;;5.50;;
25982;SDS011;13773;48.868;10.730;2023-05-20T08:08:37;5.83;;;5.30;;
25982;SDS011;13773;48.868;10.730;2023-05-20T08:11:05;7.77;;;4.90;;
25982;SDS011;13773;48.868;10.730;2023-05-20T08:13:31;5.60;;;4.80;;
25982;SDS011;13773;48.868;10.730;2023-05-20T08:15:57;5.50;;;4.97;;
25982;SDS011;13773;48.868;10.730;2023-05-20T08:18:23;6.17;;;5.50;;
25982;SDS011;13773;48.868;10.730;2023-05-20T08:20:48;5.07;;;4.67;;
25982;SDS011;13773;48.868;10.730;2023-05-20T08:23:15;5.70;;;5.20;;
25982;SDS011;13773;48.868;10.730;2023-05-20T08:25:41;5.90;;;5.30;;
25982;SDS011;13773;48.868;10.730;2023-05-20T08:28:06;5.40;;;4.90;;
25982;SDS011;13773;48.868;10.730;2023-05-20T08:30:32;5.40;;;4.87;;
25982;SDS011;13773;48.868;10.730;2023-05-20T08:32:59;6.40;;;5.47;;
25982;SDS011;13773;48.868;10.730;2023-05-20T08:35:25;5.83;;;5.00;;
25982;SDS011;13773;48.868;10.730;2023-05-20T08:37:51;6.00;;;5.40;;
25982;SDS011;13773;48.868;10.730;2023-05-20T08:40:18;5.43;;;4.93;;
25982;SDS011;13773;48.868;10.730;2023-05-20T08:42:45;5.47;;;4.97;;
25982;SDS011;13773;48.868;10.730;2023-05-20T08:45:14;5.00;;;4.60;;
25982;SDS011;13773;48.868;10.730;2023-05-20T08:47:42;5.47;;;4.97;;
25982;SDS011;13773;48.868;10.730;2023-05-20T08:50:09;9.23;;;4.77;;
25982;SDS011;13773;48.868;10.730;2023-05-20T08:52:36;4.90;;;4.50;;
25982;SDS011;13773;48.868;10.730;2023-05-20T08:55:08;4.83;;;4.40;;
25982;SDS011;13773;48.868;10.730;2023-05-20T08:57:36;5.03;;;4.63;;
25982;SDS011;13773;48.868;10.730;2023-05-20T09:00:02;4.90;;;4.40;;
25982;SDS011;13773;48.868;10.730;2023-05-20T09:02:36;8.87;;;4.97;;
25982;SDS011;13773;48.868;10.730;2023-05-20T09:05:02;5.20;;;4.57;;
25982;SDS011;13773;48.868;10.730;2023-05-20T09:07:29;4.93;;;4.47;;
25982;SDS011;13773;48.868;10.730;2023-05-20T09:09:55;4.70;;;4.30;;
25982;SDS011;13773;48.868;10.730;2023-05-20T09:12:22;5.37;;;4.57;;
25982;SDS011;13773;48.868;10.730;2023-05-20T09:14:48;4.40;;;4.00;;
25982;SDS011;13773;48.868;10.730;2023-05-20T09:17:14;5.20;;;4.70;;
25982;SDS011;13773;48.868;10.730;2023-05-20T09:19:39;4.70;;;4.30;;
25982;SDS011;13773;48.868;10.730;2023-05-20T09:22:05;5.17;;;4.53;;
25982;SDS011;13773;48.868;10.730;2023-05-20T09:24:31;4.33;;;3.90;;
25982;SDS011;13773;48.868;10.730;2023-05-20T09:26:57;5.80;;;4.70;;
25982;SDS011;13773;48.868;10.730;2023-05-20T09:29:24;4.97;;;4.47;;
25982;SDS011;13773;48.868;10.730;2023-05-20T09:31:50;5.07;;;4.53;;
25982;SDS011;13773;48.868;10.730;2023-05-20T09:34:18;4.77;;;4.37;;
25982;SDS011;13773;48.868;10.730;2023-05-20T09:36:45;5.03;;;4.63;;
25982;SDS011;13773;48.868;10.730;2023-05-20T09:39:15;4.57;;;4.17;;
25982;SDS011;13773;48.868;10.730;2023-05-20T09:41:48;5.07;;;4.67;;
25982;SDS011;13773;48.868;10.730;2023-05-20T09:44:19;4.60;;;4.20;;
25982;SDS011;13773;48.868;10.730;2023-05-20T09:46:46;5.33;;;4.80;;
25982;SDS011;13773;48.868;10.730;2023-05-20T09:49:13;5.03;;;4.23;;
25982;SDS011;13773;48.868;10.730;2023-05-20T09:51:40;4.93;;;4.47;;
25982;SDS011;13773;48.868;10.730;2023-05-20T09:54:08;4.87;;;4.37;;
25982;SDS011;13773;48.868;10.730;2023-05-20T09:56:35;4.80;;;4.40;;
25982;SDS011;13773;48.868;10.730;2023-05-20T09:59:02;4.93;;;4.47;;
25982;SDS011;13773;48.868;10.730;2023-05-20T10:01:29;4.70;;;4.23;;
25982;SDS011;13773;48.868;10.730;2023-05-20T10:03:55;4.43;;;4.00;;
25982;SDS011;13773;48.868;10.730;2023-05-20T10:06:26;4.47;;;4.07;;
25982;SDS011;13773;48.868;10.730;2023-05-20T10:20:53;5.40;;;4.53;;
25982;SDS011;13773;48.868;10.730;2023-05-20T10:23:22;4.93;;;4.40;;
25982;SDS011;13773;48.868;10.730;2023-05-20T10:25:52;5.27;;;4.60;;
25982;SDS011;13773;48.868;10.730;2023-05-20T10:28:28;5.03;;;4.53;;
25982;SDS011;13773;48.868;10.730;2023-05-20T10:31:00;4.70;;;4.20;;
25982;SDS011;13773;48.868;10.730;2023-05-20T10:33:26;3.90;;;3.60;;
25982;SDS011;13773;48.868;10.730;2023-05-20T10:35:53;3.80;;;3.50;;
25982;SDS011;13773;48.868;10.730;2023-05-20T10:38:22;8.93;;;3.93;;
25982;SDS011;13773;48.868;10.730;2023-05-20T10:40:48;4.93;;;3.87;;
25982;SDS011;13773;48.868;10.730;2023-05-20T10:43:25;4.43;;;4.03;;
25982;SDS011;13773;48.868;10.730;2023-05-20T10:45:53;4.13;;;3.83;;
25982;SDS011;13773;48.868;10.730;2023-05-20T10:50:55;4.73;;;4.33;;
25982;SDS011;13773;48.868;10.730;2023-05-20T10:53:22;4.40;;;3.63;;
25982;SDS011;13773;48.868;10.730;2023-05-20T10:55:49;4.97;;;4.57;;
25982;SDS011;13773;48.868;10.730;2023-05-20T10:58:16;4.63;;;4.20;;
25982;SDS011;13773;48.868;10.730;2023-05-20T11:00:46;4.60;;;4.20;;
25982;SDS011;13773;48.868;10.730;2023-05-20T11:03:13;4.20;;;3.77;;
25982;SDS011;13773;48.868;10.730;2023-05-20T11:05:40;5.60;;;5.00;;
25982;SDS011;13773;48.868;10.730;2023-05-20T11:08:07;4.23;;;3.93;;
25982;SDS011;13773;48.868;10.730;2023-05-20T11:10:34;4.67;;;4.10;;
25982;SDS011;13773;48.868;10.730;2023-05-20T11:13:01;4.63;;;4.23;;
25982;SDS011;13773;48.868;10.730;2023-05-20T11:15:28;4.60;;;4.23;;
25982;SDS011;13773;48.868;10.730;2023-05-20T11:17:56;4.73;;;4.30;;
25982;SDS011;13773;48.868;10.730;2023-05-20T11:20:25;5.23;;;4.17;;
25982;SDS011;13773;48.868;10.730;2023-05-20T11:22:51;5.07;;;4.57;;
25982;SDS011;13773;48.868;10.730;2023-05-20T11:25:18;4.53;;;4.13;;
25982;SDS011;13773;48.868;10.730;2023-05-20T11:27:45;5.93;;;4.37;;
25982;SDS011;13773;48.868;10.730;2023-05-20T11:30:14;4.60;;;4.30;;
25982;SDS011;13773;48.868;10.730;2023-05-20T11:32:41;4.53;;;4.13;;
25982;SDS011;13773;48.868;10.730;2023-05-20T11:35:18;4.27;;;3.97;;
25982;SDS011;13773;48.868;10.730;2023-05-20T11:37:59;5.10;;;4.60;;
25982;SDS011;13773;48.868;10.730;2023-05-20T11:40:30;4.90;;;4.50;;
25982;SDS011;13773;48.868;10.730;2023-05-20T11:42:57;4.87;;;4.37;;
25982;SDS011;13773;48.868;10.730;2023-05-20T11:45:24;6.13;;;4.50;;
25982;SDS011;13773;48.868;10.730;2023-05-20T11:48:01;5.10;;;4.50;;
25982;SDS011;13773;48.868;10.730;2023-05-20T11:50:28;4.30;;;3.93;;
25982;SDS011;13773;48.868;10.730;2023-05-20T11:53:01;4.27;;;3.87;;
25982;SDS011;13773;48.868;10.730;2023-05-20T11:55:27;4.07;;;3.77;;
25982;SDS011;13773;48.868;10.730;2023-05-20T11:57:53;4.80;;;4.30;;
25982;SDS011;13773;48.868;10.730;2023-05-20T12:00:21;4.43;;;4.03;;
25982;SDS011;13773;48.868;10.730;2023-05-20T12:02:47;4.63;;;4.20;;
25982;SDS011;13773;48.868;10.730;2023-05-20T12:05:13;4.87;;;4.37;;
25982;SDS011;13773;48.868;10.730;2023-05-20T12:07:41;4.57;;;3.97;;
25982;SDS011;13773;48.868;10.730;2023-05-20T12:10:12;7.33;;;4.30;;
25982;SDS011;13773;48.868;10.730;2023-05-20T12:12:38;4.47;;;4.07;;
25982;SDS011;13773;48.868;10.730;2023-05-20T12:15:04;4.87;;;4.40;;
25982;SDS011;13773;48.868;10.730;2023-05-20T12:17:42;5.77;;;4.20;;
25982;SDS011;13773;48.868;10.730;2023-05-20T12:20:10;4.57;;;4.00;;
25982;SDS011;13773;48.868;10.730;2023-05-20T12:22:41;5.27;;;4.20;;
25982;SDS011;13773;48.868;10.730;2023-05-20T12:25:10;4.37;;;3.97;;
25982;SDS011;13773;48.868;10.730;2023-05-20T12:27:37;4.93;;;4.47;;
25982;SDS011;13773;48.868;10.730;2023-05-20T12:30:03;5.97;;;4.07;;
25982;SDS011;13773;48.868;10.730;2023-05-20T12:32:29;4.73;;;4.10;;
25982;SDS011;13773;48.868;10.730;2023-05-20T12:34:55;4.50;;;3.63;;
25982;SDS011;13773;48.868;10.730;2023-05-20T12:37:21;5.70;;;3.80;;
25982;SDS011;13773;48.868;10.730;2023-05-20T12:39:47;5.50;;;3.40;;
25982;SDS011;13773;48.868;10.730;2023-05-20T12:42:12;4.13;;;3.40;;
25982;SDS011;13773;48.868;10.730;2023-05-20T12:44:38;4.03;;;3.73;;
25982;SDS011;13773;48.868;10.730;2023-05-20T12:47:04;4.10;;;3.80;;
25982;SDS011;13773;48.868;10.730;2023-05-20T12:49:29;4.35;;;3.65;;
25982;SDS011;13773;48.868;10.730;2023-05-20T12:51:55;5.80;;;4.00;;
25982;SDS011;13773;48.868;10.730;2023-05-20T12:54:21;3.80;;;3.47;;
25982;SDS011;13773;48.868;10.730;2023-05-20T12:56:46;4.67;;;4.27;;
25982;SDS011;13773;48.868;10.730;2023-05-20T12:59:13;5.00;;;4.50;;
25982;SDS011;13773;48.868;10.730;2023-05-20T13:01:39;4.87;;;4.37;;
25982;SDS011;13773;48.868;10.730;2023-05-20T13:04:04;4.30;;;3.90;;
25982;SDS011;13773;48.868;10.730;2023-05-20T13:06:31;4.35;;;3.95;;
25982;SDS011;13773;48.868;10.730;2023-05-20T13:08:58;4.43;;;4.03;;
25982;SDS011;13773;48.868;10.730;2023-05-20T13:11:23;4.57;;;4.20;;
25982;SDS011;13773;48.868;10.730;2023-05-20T13:13:49;4.43;;;3.88;;
25982;SDS011;13773;48.868;10.730;2023-05-20T13:16:15;4.82;;;4.05;;
25982;SDS011;13773;48.868;10.730;2023-05-20T13:18:42;4.30;;;4.00;;
25982;SDS011;13773;48.868;10.730;2023-05-20T13:21:08;4.25;;;3.47;;
25982;SDS011;13773;48.868;10.730;2023-05-20T13:23:33;6.88;;;4.13;;
25982;SDS011;13773;48.868;10.730;2023-05-20T13:26:00;4.43;;;4.00;;
25982;SDS011;13773;48.868;10.730;2023-05-20T13:28:26;3.75;;;3.50;;
25982;SDS011;13773;48.868;10.730;2023-05-20T13:30:52;3.80;;;3.40;;
25982;SDS011;13773;48.868;10.730;2023-05-20T13:33:18;4.00;;;3.70;;
25982;SDS011;13773;48.868;10.730;2023-05-20T13:35:43;5.22;;;4.00;;
25982;SDS011;13773;48.868;10.730;2023-05-20T13:38:09;4.72;;;4.20;;
25982;SDS011;13773;48.868;10.730;2023-05-20T13:40:35;5.10;;;4.13;;
25982;SDS011;13773;48.868;10.730;2023-05-20T13:43:00;4.88;;;4.47;;
25982;SDS011;13773;48.868;10.730;2023-05-20T13:45:26;5.43;;;3.65;;
25982;SDS011;13773;48.868;10.730;2023-05-20T13:47:53;5.53;;;4.15;;
25982;SDS011;13773;48.868;10.730;2023-05-20T13:50:19;4.53;;;3.77;;
25982;SDS011;13773;48.868;10.730;2023-05-20T13:52:45;4.20;;;3.90;;
25982;SDS011;13773;48.868;10.730;2023-05-20T13:55:10;4.50;;;4.00;;
25982;SDS011;13773;48.868;10.730;2023-05-20T13:57:36;3.80;;;3.50;;
25982;SDS011;13773;48.868;10.730;2023-05-20T14:00:02;4.03;;;3.67;;
25982;SDS011;13773;48.868;10.730;2023-05-20T14:02:29;4.50;;;3.47;;
25982;SDS011;13773;48.868;10.730;2023-05-20T14:04:55;4.30;;;3.60;;
25982;SDS011;13773;48.868;10.730;2023-05-20T14:07:21;4.90;;;4.03;;
25982;SDS011;13773;48.868;10.730;2023-05-20T14:09:46;5.00;;;4.20;;
25982;SDS011;13773;48.868;10.730;2023-05-20T14:12:12;4.97;;;4.30;;
25982;SDS011;13773;48.868;10.730;2023-05-20T14:14:38;5.50;;;5.00;;
25982;SDS011;13773;48.868;10.730;2023-05-20T14:17:03;5.33;;;4.83;;
25982;SDS011;13773;48.868;10.730;2023-05-20T14:19:29;4.68;;;4.28;;
25982;SDS011;13773;48.868;10.730;2023-05-20T14:21:55;5.45;;;4.85;;
25982;SDS011;13773;48.868;10.730;2023-05-20T14:24:22;5.43;;;4.93;;
25982;SDS011;13773;48.868;10.730;2023-05-20T14:26:48;6.10;;;4.95;;
25982;SDS011;13773;48.868;10.730;2023-05-20T14:29:14;5.45;;;4.82;;
25982;SDS011;13773;48.868;10.730;2023-05-20T14:31:39;6.38;;;5.47;;
25982;SDS011;13773;48.868;10.730;2023-05-20T14:34:05;5.15;;;4.53;;
25982;SDS011;13773;48.868;10.730;2023-05-20T14:36:31;5.28;;;4.57;;
25982;SDS011;13773;48.868;10.730;2023-05-20T14:38:57;4.63;;;4.23;;
25982;SDS011;13773;48.868;10.730;2023-05-20T14:41:22;5.03;;;4.53;;
25982;SDS011;13773;48.868;10.730;2023-05-20T14:43:48;4.00;;;3.60;;
25982;SDS011;13773;48.868;10.730;2023-05-20T14:46:13;4.00;;;3.60;;